CPY2 weather

Milton (District Hospital) Heliport
Milton, Ontario, Canada

Public forecast

Using degrees Celsius for public forecast. Weather courtesy of forecast.io.

METAR (pilot weather report)

Closest report is Lester B. Pearson International Airport, 15.1 nm (27.9 km) NE. Retrieved 2018/11/16 04:16 UTC (34 minutes ago):

CYYZ 160416Z 10007KT 4SM -SN OVC004 00/M01 A2987 RMK SF8 SLP124

TAF (pilot weather forecast)

Closest forecast is Lester B. Pearson International Airport, 15.1 nm (27.9 km) NE. Retrieved 2018/11/16 03:40 UTC (1 hour ago):

TAF CYYZ 160238Z 1603/1706 11010KT 3/4SM -SN OVC004 TEMPO 1603/1608 3SM -SN SCT004 OVC010 FM160800 12007KT 21/2SM -SNRA BR BKN004 OVC010 TEMPO 1608/1612 6SM BR SCT004 OVC010 FM161200 14007KT 4SM -RASN BR BKN006 OVC012 FM161500 24010G20KT 6SM -SHRASN BR SCT012 OVC040 BECMG 1617/1618 25015G25KT FM161800 25015G25KT P6SM BKN020 OVC070 FM162300 26015KT P6SM FEW015 BKN025 FM170300 28012KT P6SM BKN030 RMK NXT FCST BY 160600Z